Погода Синдна 2 недели

Синд, Пакистан

17 - 30 июля
  • 17июля
    Сегодня
    +30°
    +41°
    Облачно с прояснениями
    ВремяПогодаТемператураВлажностьДавлениеВетер, м/сВероятность осадков
    02:00Облачно с прояснениями+31°C61 %745 мм3.4 м/с1 %
    05:00Облачно с прояснениями+31°C72 %746 мм1.6 м/с2 %
    08:00Облачно с прояснениями+32°C65 %747 мм2.2 м/с2 %
    11:00Облачно с прояснениями+39°C45 %747 мм2.9 м/с3 %
    14:00Облачно с прояснениями+39°C40 %746 мм3.4 м/с3 %
    17:00Облачно с прояснениями+40°C38 %745 мм3.2 м/с5 %
    20:00Облачно с прояснениями+36°C50 %746 мм4.0 м/с3 %
    23:00Практически безоблачно+34°C57 %747 мм4.9 м/с2 %
  • 18июля
    Четверг
    +30°
    +41°
    Ясно и безоблачно
    ВремяПогодаТемператураВлажностьДавлениеВетер, м/сВероятность осадков
    02:00Ясно и безоблачно+32°C70 %746 мм4.6 м/с2 %
    05:00Ясно и безоблачно+31°C73 %746 мм3.5 м/с2 %
    08:00Практически безоблачно+33°C68 %747 мм4.5 м/с2 %
    11:00Практически безоблачно+38°C50 %747 мм4.3 м/с2 %
    14:00Ясно и безоблачно+41°C39 %745 мм3.9 м/с2 %
    17:00Практически безоблачно+40°C38 %743 мм4.1 м/с1 %
    20:00Ясно и безоблачно+35°C58 %744 мм7.0 м/с3 %
    23:00Облачно с прояснениями+33°C66 %746 мм5.3 м/с1 %
  • 19июля
    Пятница
    +30°
    +41°
    Ясно и безоблачно
    ВремяПогодаТемператураВлажностьДавлениеВетер, м/сВероятность осадков
    02:00Облачно с прояснениями+31°C71 %745 мм5.3 м/с1 %
    05:00Облачно с прояснениями+31°C74 %745 мм4.1 м/с2 %
    08:00Практически безоблачно+32°C67 %745 мм4.4 м/с2 %
    11:00Практически безоблачно+37°C46 %745 мм4.1 м/с1 %
    14:00Ясно и безоблачно+40°C37 %743 мм4.1 м/с13 %
    17:00Облачно с прояснениями+39°C39 %742 мм3.4 м/с29 %
    20:00Облачно с прояснениями+35°C61 %744 мм5.4 м/с23 %
    23:00Облачно с прояснениями+33°C62 %745 мм5.3 м/с14 %
  • 20июля
    Суббота
    +30°
    +41°
    Ясно и безоблачно
    ВремяПогодаТемператураВлажностьДавлениеВетер, м/сВероятность осадков
    02:00Облачно с прояснениями+31°C67 %745 мм4.7 м/с5 %
    05:00Практически безоблачно+31°C70 %745 мм3.9 м/с3 %
    08:00Ясно и безоблачно+32°C64 %746 мм4.2 м/с3 %
    11:00Ясно и безоблачно+37°C45 %746 мм4.3 м/с12 %
    14:00Ясно и безоблачно+40°C36 %745 мм3.9 м/с19 %
    17:00Облачно с прояснениями+40°C36 %744 мм4.6 м/с21 %
    20:00Облачно с прояснениями+36°C50 %745 мм6.1 м/с16 %
    23:00Практически безоблачно+33°C63 %746 мм6.1 м/с13 %
  • 21июля
    Воскресенье
    +29°
    +41°
    Ясно и безоблачно
    ВремяПогодаТемператураВлажностьДавлениеВетер, м/сВероятность осадков
    02:00Небольшая облачность+31°C68 %746 мм5.7 м/с6 %
    05:00Ясно и безоблачно+31°C72 %746 мм5.3 м/с5 %
    08:00Ясно и безоблачно+32°C66 %747 мм5.4 м/с2 %
    11:00Ясно и безоблачно+37°C44 %747 мм5.5 м/с4 %
    14:00Ясно и безоблачно+40°C35 %744 мм5.4 м/с6 %
    17:00Ясно и безоблачно+39°C38 %743 мм7.1 м/с11 %
    20:00Облачно с прояснениями+35°C57 %745 мм7.4 м/с9 %
    23:00Облачно с прояснениями+32°C67 %746 мм7.4 м/с7 %
Мы используем cookies
Соглашаюсь